Time;durP1;ratioP1;P1;durP2;ratioP2;P2;SDS_P1;SDS_P2;PMS_P1;PMS_P2;Temp;Humidity;BMP_temperature;BMP_pressure;BME280_temperature;BME280_humidity;BME280_pressure;Samples;Min_cycle;Max_cycle;Signal;HPM_P1;HPM_P2
2023/12/09 00:02:14;;;;;;;13.40;13.00;;;;;;;-141.02;100.00;39911.50;5114245;28;20561;-70
2023/12/09 00:04:42;;;;;;;13.07;12.67;;;;;;;-141.02;100.00;39928.78;5114186;28;20566;-70
2023/12/09 00:07:09;;;;;;;13.97;13.57;;;;;;;-141.02;100.00;39911.50;5114056;28;20207;-71
2023/12/09 00:09:36;;;;;;;14.80;14.30;;;;;;;-141.02;100.00;39838.63;5114138;28;20655;-68
2023/12/09 00:12:03;;;;;;;14.90;14.40;;;;;;;-141.02;100.00;39819.44;5114342;28;20193;-67
2023/12/09 00:14:30;;;;;;;15.10;14.60;;;;;;;-141.02;100.00;39863.56;5114281;28;20197;-68
2023/12/09 00:16:57;;;;;;;15.47;14.97;;;;;;;-141.02;100.00;39813.69;5114212;28;20200;-70
2023/12/09 00:19:24;;;;;;;15.50;14.93;;;;;;;-141.02;100.00;39827.13;5113784;28;20201;-68
2023/12/09 00:21:52;;;;;;;14.93;14.43;;;;;;;-141.02;100.00;39819.44;5113846;28;20189;-71
2023/12/09 00:24:19;;;;;;;15.40;14.80;;;;;;;-141.02;100.00;39809.84;5113689;28;20193;-69
2023/12/09 00:26:46;;;;;;;15.50;14.90;;;;;;;-141.02;100.00;39742.72;5113767;27;20247;-68
2023/12/09 00:29:13;;;;;;;14.90;14.40;;;;;;;-141.02;100.00;39777.25;5113538;28;20227;-68
2023/12/09 00:31:40;;;;;;;16.70;16.10;;;;;;;-141.02;100.00;39736.97;5113580;28;20663;-67
2023/12/09 00:34:07;;;;;;;14.90;14.40;;;;;;;-141.02;100.00;39786.84;5113830;28;20193;-68
2023/12/09 00:36:34;;;;;;;15.30;14.80;;;;;;;-141.02;100.00;39758.06;5113469;28;20194;-68
2023/12/09 00:39:02;;;;;;;15.13;14.63;;;;;;;-141.02;100.00;39830.94;5113799;28;20207;-69
2023/12/09 00:41:29;;;;;;;14.70;14.20;;;;;;;-141.02;100.00;39811.78;5113437;28;20602;-68
2023/12/09 00:43:56;;;;;;;14.80;14.30;;;;;;;-141.02;100.00;39850.13;5113456;28;20195;-68
2023/12/09 00:46:23;;;;;;;14.83;14.33;;;;;;;-141.02;100.00;39807.94;5113363;28;20203;-69
2023/12/09 00:48:50;;;;;;;14.83;14.33;;;;;;;-141.02;100.00;39857.81;5113190;28;20229;-68
2023/12/09 00:51:17;;;;;;;14.13;13.73;;;;;;;-141.02;100.00;39923.03;5113298;28;20574;-70
2023/12/09 00:53:44;;;;;;;12.57;12.17;;;;;;;-141.02;100.00;39947.97;5112993;28;20229;-68
2023/12/09 00:56:12;;;;;;;13.20;12.80;;;;;;;-141.02;100.00;39984.41;5113752;28;20289;-69
2023/12/09 00:58:39;;;;;;;12.63;12.23;;;;;;;-141.02;100.00;39953.72;5113417;28;20270;-68
2023/12/09 01:01:07;;;;;;;12.60;12.20;;;;;;;-141.02;100.00;40064.97;5113393;28;20206;-68
2023/12/09 01:03:34;;;;;;;12.90;12.50;;;;;;;-141.02;100.00;40086.06;5113357;28;20201;-68
2023/12/09 01:06:01;;;;;;;12.53;12.13;;;;;;;-141.02;100.00;40078.38;5112880;28;20197;-68
2023/12/09 01:08:29;;;;;;;11.70;11.40;;;;;;;-141.02;100.00;40157.03;5112822;28;20225;-70
2023/12/09 01:10:55;;;;;;;11.37;11.07;;;;;;;-141.02;100.00;40172.38;5112910;28;20197;-69
2023/12/09 01:13:24;;;;;;;12.60;12.20;;;;;;;-141.02;100.00;40249.13;5112467;28;20190;-69
2023/12/09 01:15:51;;;;;;;11.90;11.53;;;;;;;-141.02;100.00;40314.34;5113137;28;20203;-68
2023/12/09 01:18:17;;;;;;;11.70;11.40;;;;;;;-141.02;100.00;40291.31;5113057;28;20193;-68
2023/12/09 01:20:44;;;;;;;11.20;10.90;;;;;;;-141.02;100.00;40352.69;5112743;28;20203;-68
2023/12/09 01:23:13;;;;;;;12.03;11.63;;;;;;;-141.02;100.00;40402.56;5112649;28;20242;-68
2023/12/09 01:25:39;;;;;;;11.13;10.83;;;;;;;-141.02;100.00;40348.88;5112950;28;20193;-67
2023/12/09 01:28:07;;;;;;;12.00;11.60;;;;;;;-141.02;100.00;40283.63;5112522;28;20229;-68
2023/12/09 01:30:36;;;;;;;11.60;11.30;;;;;;;-141.02;100.00;40368.03;5112583;28;20197;-68
2023/12/09 01:33:03;;;;;;;11.30;11.00;;;;;;;-141.02;100.00;40279.81;5112589;28;20574;-67
2023/12/09 01:35:29;;;;;;;11.80;11.50;;;;;;;-141.02;100.00;40203.06;5113336;28;20193;-69
2023/12/09 01:37:56;;;;;;;11.90;11.50;;;;;;;-141.02;100.00;40122.50;5112830;28;20192;-67
2023/12/09 01:40:23;;;;;;;12.63;12.23;;;;;;;-141.02;100.00;40122.50;5112813;28;20279;-68
2023/12/09 01:42:50;;;;;;;12.60;12.20;;;;;;;-141.02;100.00;40091.81;5112854;28;20193;-67
2023/12/09 01:45:17;;;;;;;12.50;12.10;;;;;;;-141.02;100.00;40080.31;5112475;28;20555;-67
2023/12/09 01:47:46;;;;;;;11.83;11.53;;;;;;;-141.02;100.00;40135.94;5112268;28;20705;-68
2023/12/09 01:50:12;;;;;;;13.37;12.90;;;;;;;-141.02;100.00;40153.19;5112795;28;20282;-67
2023/12/09 01:52:40;;;;;;;14.37;13.97;;;;;;;-141.02;100.00;40275.97;5112368;28;20197;-68
2023/12/09 01:55:09;;;;;;;12.60;12.20;;;;;;;-141.02;100.00;40486.97;5112190;28;20225;-68
2023/12/09 01:57:36;;;;;;;11.90;11.60;;;;;;;-141.02;100.00;40488.91;5112278;28;20574;-67
2023/12/09 02:00:04;;;;;;;11.43;11.13;;;;;;;-141.02;100.00;40479.31;5112319;28;20726;-68
2023/12/09 02:02:31;;;;;;;11.53;11.23;;;;;;;-141.02;100.00;40440.94;5112641;28;20197;-68
2023/12/09 02:05:00;;;;;;;13.00;12.60;;;;;;;-141.02;100.00;40274.06;5112528;28;20189;-67
2023/12/09 02:07:27;;;;;;;12.60;12.20;;;;;;;-141.02;100.00;40251.03;5112574;28;20272;-67
2023/12/09 02:09:54;;;;;;;13.17;12.77;;;;;;;-141.02;100.00;40352.69;5112504;28;20197;-67
2023/12/09 02:12:31;;;;;;;12.90;12.50;;;;;;;-141.02;100.00;40245.28;5112293;28;20199;-68
2023/12/09 02:15:03;;;;;;;13.60;13.20;;;;;;;-141.02;100.00;40226.09;5112437;28;20270;-69
2023/12/09 02:17:35;;;;;;;14.23;13.77;;;;;;;-141.02;100.00;40114.84;5112549;28;20224;-68
2023/12/09 02:20:05;;;;;;;13.97;13.57;;;;;;;-141.02;100.00;40118.66;5112142;28;20190;-68
2023/12/09 02:22:32;;;;;;;13.80;13.40;;;;;;;-141.02;100.00;40183.88;5112112;28;20704;-67
2023/12/09 02:25:00;;;;;;;14.23;13.73;;;;;;;-141.02;100.00;40153.19;5112107;28;20650;-68
2023/12/09 02:27:32;;;;;;;14.23;13.73;;;;;;;-141.02;100.00;40114.84;5115549;28;20203;-68
2023/12/09 02:30:09;;;;;;;13.77;13.37;;;;;;;-141.02;100.00;40095.66;5115951;28;20213;-67
2023/12/09 02:32:38;;;;;;;13.90;13.40;;;;;;;-141.02;100.00;40095.66;5116038;28;20199;-68
2023/12/09 02:35:07;;;;;;;14.13;13.63;;;;;;;-141.02;100.00;40045.78;5115982;28;20674;-68
2023/12/09 02:37:36;;;;;;;13.77;13.37;;;;;;;-141.02;100.00;40111.00;5115865;28;20284;-68
2023/12/09 02:40:09;;;;;;;14.20;13.70;;;;;;;-141.02;100.00;40072.63;5116173;28;20203;-69
2023/12/09 02:42:37;;;;;;;14.63;14.13;;;;;;;-141.02;100.00;40091.81;5116126;28;20189;-68
2023/12/09 02:45:06;;;;;;;13.90;13.50;;;;;;;-141.02;100.00;40038.09;5115766;28;20193;-68
2023/12/09 02:47:33;;;;;;;13.50;13.10;;;;;;;-141.02;100.00;40130.19;5115689;28;20197;-68
2023/12/09 02:50:00;;;;;;;12.20;11.80;;;;;;;-141.02;100.00;40157.03;5115922;28;20307;-68
2023/12/09 02:52:27;;;;;;;12.50;12.10;;;;;;;-141.02;100.00;40212.66;5115907;28;20189;-68
2023/12/09 02:54:54;;;;;;;12.73;12.33;;;;;;;-141.02;100.00;40281.72;5115433;28;20272;-68
2023/12/09 02:57:22;;;;;;;12.40;12.00;;;;;;;-141.02;100.00;40187.72;5115830;28;20196;-68
2023/12/09 02:59:49;;;;;;;12.20;11.80;;;;;;;-141.02;100.00;40295.16;5115711;28;20189;-69
2023/12/09 03:02:16;;;;;;;12.70;12.30;;;;;;;-141.02;100.00;40191.56;5115448;28;20754;-68
2023/12/09 03:04:43;;;;;;;13.13;12.73;;;;;;;-141.02;100.00;40266.38;5115401;28;20203;-68
2023/12/09 03:07:09;;;;;;;12.47;12.07;;;;;;;-141.02;100.00;40281.72;5115336;28;20571;-68
2023/12/09 03:09:36;;;;;;;12.90;12.50;;;;;;;-141.02;100.00;40252.94;5115194;28;20235;-68
2023/12/09 03:12:04;;;;;;;13.13;12.73;;;;;;;-141.02;100.00;40256.78;5115221;28;20193;-68
2023/12/09 03:14:32;;;;;;;13.40;13.00;;;;;;;-141.02;100.00;40099.50;5115267;28;20651;-68
2023/12/09 03:16:59;;;;;;;13.50;13.10;;;;;;;-141.02;100.00;40164.72;5115360;28;20193;-68
2023/12/09 03:19:26;;;;;;;13.13;12.73;;;;;;;-141.02;100.00;40107.16;5115165;28;20250;-68
2023/12/09 03:21:53;;;;;;;13.00;12.60;;;;;;;-141.02;100.00;40097.56;5115048;28;20192;-69
2023/12/09 03:24:20;;;;;;;13.23;12.83;;;;;;;-141.02;100.00;40243.34;5115236;28;20276;-68
2023/12/09 03:26:50;;;;;;;12.40;12.00;;;;;;;-141.02;100.00;40157.03;5115284;28;20222;-68
2023/12/09 03:29:17;;;;;;;12.50;12.10;;;;;;;-141.02;100.00;40080.31;5115076;28;20220;-69
2023/12/09 03:31:45;;;;;;;13.00;12.60;;;;;;;-141.02;100.00;40072.63;5114860;28;20675;-68
2023/12/09 03:34:13;;;;;;;13.27;12.87;;;;;;;-141.02;100.00;40041.94;5115125;28;20200;-68
2023/12/09 03:36:40;;;;;;;13.03;12.63;;;;;;;-141.02;100.00;40072.63;5114369;28;20199;-67
2023/12/09 03:39:07;;;;;;;13.23;12.83;;;;;;;-141.02;100.00;40157.03;5114990;28;20203;-68
2023/12/09 03:41:34;;;;;;;12.40;12.00;;;;;;;-141.02;100.00;40345.03;5114661;28;20181;-68
2023/12/09 03:44:01;;;;;;;12.63;12.23;;;;;;;-141.02;100.00;40394.91;5114603;28;20674;-67
2023/12/09 03:46:28;;;;;;;12.23;11.83;;;;;;;-141.02;100.00;40354.63;5114489;28;20189;-68
2023/12/09 03:48:57;;;;;;;12.40;12.00;;;;;;;-141.02;100.00;40283.63;5114445;28;20225;-67
2023/12/09 03:51:24;;;;;;;13.00;12.60;;;;;;;-141.02;100.00;40258.69;5114464;28;20283;-67
2023/12/09 03:53:50;;;;;;;12.50;12.10;;;;;;;-141.02;100.00;40187.72;5114252;28;20236;-67
2023/12/09 03:56:18;;;;;;;13.10;12.70;;;;;;;-141.02;100.00;40130.19;5114674;28;20216;-66
2023/12/09 03:58:45;;;;;;;13.53;13.10;;;;;;;-141.02;100.00;40149.38;5114593;28;20280;-67
2023/12/09 04:01:12;;;;;;;13.67;13.17;;;;;;;-141.02;100.00;40049.63;5114619;28;20193;-68
2023/12/09 04:03:39;;;;;;;13.47;13.07;;;;;;;-141.02;100.00;40057.28;5114236;28;20207;-68
2023/12/09 04:06:08;;;;;;;14.37;13.87;;;;;;;-141.02;100.00;39976.72;5114491;28;20201;-67
2023/12/09 04:08:35;;;;;;;13.87;13.37;;;;;;;-141.02;100.00;39976.72;5114100;28;20317;-66
2023/12/09 04:11:02;;;;;;;14.33;13.83;;;;;;;-141.02;100.00;40036.19;5114393;28;20201;-66
2023/12/09 04:13:29;;;;;;;12.40;12.00;;;;;;;-141.02;100.00;40018.94;5114375;28;20212;-67
2023/12/09 04:15:56;;;;;;;11.63;11.33;;;;;;;-141.02;100.00;40057.28;5114310;28;20193;-66
2023/12/09 04:18:23;;;;;;;11.10;10.80;;;;;;;-141.02;100.00;40191.56;5113909;28;20670;-67
2023/12/09 04:20:50;;;;;;;12.30;11.90;;;;;;;-141.02;100.00;40145.53;5114254;28;20194;-67
2023/12/09 04:23:18;;;;;;;11.30;11.00;;;;;;;-141.02;100.00;40099.50;5114136;28;20201;-68
2023/12/09 04:25:45;;;;;;;11.30;11.00;;;;;;;-141.02;100.00;40153.19;5113808;28;20204;-66
2023/12/09 04:28:12;;;;;;;10.67;10.37;;;;;;;-141.02;100.00;40111.00;5113678;28;20728;-66
2023/12/09 04:30:39;;;;;;;11.20;10.90;;;;;;;-141.02;100.00;40072.63;5113771;28;20190;-67
2023/12/09 04:33:06;;;;;;;11.50;11.20;;;;;;;-141.02;100.00;40064.97;5113741;28;20200;-66
2023/12/09 04:35:33;;;;;;;10.87;10.57;;;;;;;-141.02;100.00;40141.69;5113550;28;20742;-66
2023/12/09 04:38:00;;;;;;;12.03;11.63;;;;;;;-141.02;100.00;40272.13;5113626;28;20677;-66
2023/12/09 04:40:28;;;;;;;11.07;10.77;;;;;;;-141.02;100.00;40145.53;5113747;28;20276;-67
2023/12/09 04:42:55;;;;;;;12.00;11.60;;;;;;;-141.02;100.00;40130.19;5113472;28;20652;-68
2023/12/09 04:45:22;;;;;;;10.80;10.50;;;;;;;-141.02;100.00;40176.22;5113361;28;20193;-66
2023/12/09 04:47:49;;;;;;;10.57;10.27;;;;;;;-141.02;100.00;40176.22;5113111;28;20686;-66
2023/12/09 04:50:16;;;;;;;10.53;10.23;;;;;;;-141.02;100.00;40126.34;5113048;28;20230;-66
2023/12/09 04:52:43;;;;;;;11.43;11.13;;;;;;;-141.02;100.00;40160.88;5113485;28;20280;-66
2023/12/09 04:55:10;;;;;;;11.10;10.80;;;;;;;-141.02;100.00;40189.66;5113160;28;20665;-67
2023/12/09 04:57:38;;;;;;;10.87;10.57;;;;;;;-141.02;100.00;40285.56;5113395;28;20236;-66
2023/12/09 05:00:07;;;;;;;11.10;10.80;;;;;;;-141.02;100.00;40214.59;5113122;28;20204;-67
2023/12/09 05:02:37;;;;;;;9.70;9.40;;;;;;;-141.02;100.00;40228.00;5113257;28;20209;-66
2023/12/09 05:05:05;;;;;;;10.20;9.90;;;;;;;-141.02;100.00;40176.22;5113002;28;20189;-65
2023/12/09 05:07:32;;;;;;;10.37;10.07;;;;;;;-141.02;100.00;40218.41;5112953;28;20204;-65
2023/12/09 05:09:59;;;;;;;10.80;10.50;;;;;;;-141.02;100.00;40266.38;5113599;28;20320;-65
2023/12/09 05:12:26;;;;;;;10.93;10.63;;;;;;;-141.02;100.00;40264.47;5113243;28;20232;-65
2023/12/09 05:14:54;;;;;;;9.70;9.40;;;;;;;-141.02;100.00;40283.63;5112915;28;20189;-66
2023/12/09 05:17:21;;;;;;;10.00;9.70;;;;;;;-141.02;100.00;40256.78;5112816;28;20193;-65
2023/12/09 05:19:48;;;;;;;9.93;9.63;;;;;;;-141.02;100.00;40291.31;5113098;28;20193;-66
2023/12/09 05:22:15;;;;;;;9.80;9.50;;;;;;;-141.02;100.00;40279.81;5113035;28;20562;-65
2023/12/09 05:24:42;;;;;;;10.53;10.23;;;;;;;-141.02;100.00;40322.00;5113484;28;20193;-66
2023/12/09 05:27:09;;;;;;;11.40;11.00;;;;;;;-141.02;100.00;40360.38;5113799;28;20216;-66
2023/12/09 05:29:36;;;;;;;15.17;14.67;;;;;;;-141.02;100.00;40410.25;5112644;28;20720;-67
2023/12/09 05:32:05;;;;;;;13.57;13.17;;;;;;;-141.02;100.00;40496.56;5112685;28;20681;-65
2023/12/09 05:34:32;;;;;;;10.13;9.83;;;;;;;-141.02;100.00;40774.75;5112877;28;20201;-65
2023/12/09 05:36:59;;;;;;;9.70;9.40;;;;;;;-141.02;100.00;40751.72;5112592;28;20193;-66
2023/12/09 05:39:26;;;;;;;10.67;10.37;;;;;;;-141.02;100.00;40993.47;5112512;28;20196;-66
2023/12/09 05:41:53;;;;;;;10.37;10.07;;;;;;;-141.02;100.00;41173.84;5112779;28;20195;-66
2023/12/09 05:44:20;;;;;;;11.13;10.83;;;;;;;-141.02;100.00;41185.34;5112702;28;20283;-66
2023/12/09 05:46:46;;;;;;;10.50;10.20;;;;;;;-141.02;100.00;41221.81;5112780;28;20242;-66
2023/12/09 05:49:15;;;;;;;11.33;11.03;;;;;;;-141.02;100.00;41246.75;5112358;28;20223;-66
2023/12/09 05:51:43;;;;;;;10.80;10.50;;;;;;;-141.02;100.00;41331.19;5112366;28;20199;-67
2023/12/09 05:54:10;;;;;;;9.47;9.17;;;;;;;-141.02;100.00;41691.97;5112408;28;20244;-66
2023/12/09 05:56:37;;;;;;;9.17;8.97;;;;;;;-141.02;100.00;41822.47;5112307;28;20193;-66
2023/12/09 05:59:04;;;;;;;8.87;8.67;;;;;;;-141.02;100.00;42118.03;5112329;28;20246;-67
2023/12/09 06:01:33;;;;;;;10.33;10.03;;;;;;;-141.02;100.00;42198.63;5116209;28;20758;-67
2023/12/09 06:04:00;;;;;;;11.10;10.80;;;;;;;-141.02;100.00;42283.09;5116701;28;20216;-65
2023/12/09 06:06:28;;;;;;;11.70;11.40;;;;;;;-141.02;100.00;42450.09;5116891;28;20199;-65
2023/12/09 06:08:55;;;;;;;10.20;9.90;;;;;;;-141.02;100.00;42739.94;5116321;28;20193;-67
2023/12/09 06:11:22;;;;;;;9.90;9.60;;;;;;;-141.02;100.00;42605.56;5116670;28;20193;-66
2023/12/09 06:13:49;;;;;;;9.47;9.17;;;;;;;-141.02;100.00;42970.31;5116583;28;20197;-67
2023/12/09 06:16:18;;;;;;;9.80;9.50;;;;;;;-141.02;100.00;43070.16;5116281;28;20189;-66
2023/12/09 06:18:45;;;;;;;9.70;9.40;;;;;;;-141.02;100.00;43350.47;5116667;28;20277;-66
2023/12/09 06:21:20;;;;;;;9.73;9.43;;;;;;;-141.02;100.00;43511.75;5116591;28;20203;-66
2023/12/09 06:23:48;;;;;;;10.20;9.90;;;;;;;-141.02;100.00;43519.44;5116204;28;20643;-66
2023/12/09 06:26:15;;;;;;;10.20;9.90;;;;;;;-141.02;100.00;43367.75;5116377;28;20294;-67
2023/12/09 06:28:42;;;;;;;10.37;10.07;;;;;;;-141.02;100.00;43865.09;5116443;28;20204;-68
2023/12/09 06:31:10;;;;;;;10.67;10.37;;;;;;;-141.02;100.00;44191.56;5115869;28;20228;-68
2023/12/09 06:33:37;;;;;;;10.10;9.80;;;;;;;-141.02;100.00;44264.53;5116351;28;20611;-66
2023/12/09 06:36:05;;;;;;;9.97;9.67;;;;;;;-141.02;100.00;44575.69;5116255;28;20189;-66
2023/12/09 06:38:34;;;;;;;10.70;10.40;;;;;;;-141.02;100.00;44769.69;5115841;28;20193;-68
2023/12/09 06:41:02;;;;;;;10.70;10.40;;;;;;;-141.02;100.00;44464.28;5115920;27;20328;-67
2023/12/09 06:43:29;;;;;;;10.80;10.50;;;;;;;-141.02;100.00;44114.72;5116060;28;20224;-67
2023/12/09 06:45:56;;;;;;;10.70;10.40;;;;;;;-141.02;100.00;43753.69;5115720;28;20200;-67
2023/12/09 06:48:23;;;;;;;11.83;11.43;;;;;;;-141.02;100.00;43513.69;5116050;28;20276;-67
2023/12/09 06:50:50;;;;;;;12.07;11.67;;;;;;;-141.02;100.00;43385.03;5115837;28;20237;-68
2023/12/09 06:53:17;;;;;;;12.60;12.20;;;;;;;-141.02;100.00;43400.38;5115726;28;20354;-68
2023/12/09 06:55:44;;;;;;;12.70;12.30;;;;;;;-141.02;100.00;43496.41;5115849;28;20189;-68
2023/12/09 06:58:13;;;;;;;12.60;12.20;;;;;;;-141.02;100.00;43494.47;5115873;28;20197;-68
2023/12/09 07:00:40;;;;;;;13.10;12.70;;;;;;;-141.02;100.00;43454.16;5115732;28;20197;-69
2023/12/09 07:03:07;;;;;;;13.20;12.80;;;;;;;-141.02;100.00;43469.50;5115460;28;20292;-68
2023/12/09 07:05:34;;;;;;;13.33;12.93;;;;;;;-141.02;100.00;43404.22;5115641;28;20197;-69
2023/12/09 07:08:01;;;;;;;14.43;13.93;;;;;;;-141.02;100.00;43404.22;5116095;28;20200;-68
2023/12/09 07:10:28;;;;;;;14.23;13.73;;;;;;;-141.02;100.00;43463.75;5115235;28;20264;-70
2023/12/09 07:12:55;;;;;;;14.63;14.13;;;;;;;-141.02;100.00;43244.88;5114505;28;20725;-69
2023/12/09 07:15:23;;;;;;;15.33;14.73;;;;;;;-141.02;100.00;43189.19;5115227;28;20659;-69
2023/12/09 07:17:50;;;;;;;15.70;15.10;;;;;;;-141.02;100.00;43194.94;5115126;28;20189;-69
2023/12/09 07:20:17;;;;;;;15.77;15.17;;;;;;;-141.02;100.00;43527.13;5115055;28;20284;-68
2023/12/09 07:22:44;;;;;;;16.30;15.60;;;;;;;-141.02;100.00;43496.41;5115337;28;20193;-67
2023/12/09 07:25:11;;;;;;;17.17;16.37;;;;;;;-141.02;100.00;43511.75;5115216;28;20280;-67
2023/12/09 07:27:38;;;;;;;18.23;17.33;;;;;;;-141.02;100.00;43442.63;5115289;28;20276;-68
2023/12/09 07:30:06;;;;;;;18.70;17.80;;;;;;;-141.02;100.00;43504.06;5115112;28;20225;-68
2023/12/09 07:32:34;;;;;;;20.10;19.00;;;;;;;-141.02;100.00;43074.00;5114901;28;20193;-67
2023/12/09 07:35:01;;;;;;;21.10;20.00;;;;;;;-141.02;100.00;43001.03;5114859;28;20197;-69
2023/12/09 07:37:28;;;;;;;21.50;20.40;;;;;;;-141.02;100.00;42958.81;5114717;28;20189;-69
2023/12/09 07:39:55;;;;;;;19.17;18.27;;;;;;;-141.02;100.00;43143.09;5115072;28;20188;-66
2023/12/09 07:42:22;;;;;;;19.00;18.10;;;;;;;-141.02;100.00;43050.97;5114642;28;20591;-67
2023/12/09 07:44:49;;;;;;;19.70;18.70;;;;;;;-141.02;100.00;42381.00;5114647;28;20193;-66
2023/12/09 07:47:16;;;;;;;19.30;18.30;;;;;;;-141.02;100.00;43123.91;5114846;28;20197;-67
2023/12/09 07:49:45;;;;;;;19.43;18.53;;;;;;;-141.02;100.00;42281.19;5114755;28;20264;-67
2023/12/09 07:52:12;;;;;;;19.93;18.93;;;;;;;-141.02;100.00;43281.34;5114415;28;20195;-67
2023/12/09 07:54:39;;;;;;;18.60;17.70;;;;;;;-141.02;100.00;43699.94;5114150;28;20734;-66
2023/12/09 07:57:06;;;;;;;18.30;17.50;;;;;;;-141.02;100.00;43335.09;5114295;28;20200;-66
2023/12/09 07:59:33;;;;;;;19.37;18.37;;;;;;;-141.02;100.00;43640.41;5114593;28;20287;-67
2023/12/09 08:01:59;;;;;;;19.70;18.70;;;;;;;-141.02;100.00;43312.06;5114524;28;20193;-68
2023/12/09 08:04:26;;;;;;;20.30;19.27;;;;;;;-141.02;100.00;43085.50;5114165;28;20549;-69
2023/12/09 08:06:55;;;;;;;20.90;19.80;;;;;;;-141.02;100.00;42947.28;5114119;28;20196;-70
2023/12/09 08:09:22;;;;;;;20.40;19.40;;;;;;;-141.02;100.00;43181.50;5114484;28;20189;-69
2023/12/09 08:11:49;;;;;;;19.90;18.90;;;;;;;-141.02;100.00;42797.53;5114250;28;20227;-68
2023/12/09 08:14:15;;;;;;;19.40;18.50;;;;;;;-141.02;100.00;42734.19;5114341;28;20199;-70
2023/12/09 08:16:42;;;;;;;19.10;18.20;;;;;;;-141.02;100.00;42613.25;5114015;28;20566;-70
2023/12/09 08:19:09;;;;;;;18.40;17.60;;;;;;;-141.02;100.00;42893.53;5113967;28;20647;-70
2023/12/09 08:21:37;;;;;;;18.43;17.63;;;;;;;-141.02;100.00;42858.97;5113958;28;20203;-70
2023/12/09 08:24:05;;;;;;;19.67;18.77;;;;;;;-141.02;100.00;42636.28;5113009;28;20205;-70
2023/12/09 08:26:32;;;;;;;18.73;17.93;;;;;;;-141.02;100.00;43075.91;5114146;28;20200;-70
2023/12/09 08:29:00;;;;;;;19.23;18.33;;;;;;;-141.02;100.00;43089.34;5113738;28;20667;-71
2023/12/09 08:31:27;;;;;;;19.53;18.60;;;;;;;-141.02;100.00;43538.63;5113982;28;20229;-71
2023/12/09 08:33:54;;;;;;;19.67;18.67;;;;;;;-141.02;100.00;43329.34;5114001;28;20217;-73
2023/12/09 08:36:21;;;;;;;19.70;18.70;;;;;;;-141.02;100.00;43444.56;5113541;28;20226;-69
2023/12/09 08:38:48;;;;;;;20.47;19.37;;;;;;;-141.02;100.00;42962.66;5113946;28;20193;-72
2023/12/09 08:41:16;;;;;;;22.23;21.13;;;;;;;-141.02;100.00;42858.97;5113510;28;20655;-68
2023/12/09 08:43:43;;;;;;;24.30;23.00;;;;;;;-141.02;100.00;42640.13;5113857;28;20577;-69
2023/12/09 08:46:11;;;;;;;21.73;20.63;;;;;;;-141.02;100.00;43077.84;5113416;28;20189;-70
2023/12/09 08:48:38;;;;;;;23.10;21.80;;;;;;;-141.02;100.00;42148.75;5113639;28;20203;-71
2023/12/09 08:51:05;;;;;;;25.70;24.20;;;;;;;-141.02;100.00;42190.97;5113271;28;20236;-69
2023/12/09 08:53:32;;;;;;;24.17;22.87;;;;;;;-141.02;100.00;42144.91;5113031;28;20235;-69
2023/12/09 08:55:59;;;;;;;22.73;21.53;;;;;;;-141.02;100.00;42309.97;5113281;28;20189;-68
2023/12/09 08:58:28;;;;;;;23.57;22.27;;;;;;;-141.02;100.00;42075.81;5113230;28;20200;-68
2023/12/09 09:00:55;;;;;;;23.83;22.53;;;;;;;-141.02;100.00;42077.72;5113230;28;20194;-68
2023/12/09 09:03:23;;;;;;;24.70;23.40;;;;;;;-141.02;100.00;41787.91;5113185;28;20622;-68
2023/12/09 09:05:49;;;;;;;23.50;22.23;;;;;;;-141.02;100.00;41787.91;5113396;27;20633;-69
2023/12/09 09:08:16;;;;;;;27.00;25.50;;;;;;;-141.02;100.00;41837.81;5113396;28;20197;-68
2023/12/09 09:10:43;;;;;;;24.87;23.67;;;;;;;-141.02;100.00;41937.63;5113224;28;20316;-68
2023/12/09 09:13:10;;;;;;;25.97;24.57;;;;;;;-141.02;100.00;41929.94;5112907;28;20568;-70
2023/12/09 09:15:39;;;;;;;21.00;19.90;;;;;;;-141.02;100.00;41881.97;5113224;28;20197;-68
2023/12/09 09:18:06;;;;;;;20.80;19.70;;;;;;;-141.02;100.00;41860.84;5113096;28;20613;-70
2023/12/09 09:20:33;;;;;;;21.53;20.43;;;;;;;-141.02;100.00;41933.78;5113110;28;20193;-68
2023/12/09 09:23:00;;;;;;;19.50;18.40;;;;;;;-141.02;100.00;41933.78;5112697;28;20678;-69
2023/12/09 09:25:27;;;;;;;21.13;19.83;;;;;;;-141.02;100.00;41672.78;5113097;28;20197;-69
2023/12/09 09:27:54;;;;;;;20.60;19.30;;;;;;;-141.02;100.00;41665.09;5112718;28;20293;-70
2023/12/09 09:30:22;;;;;;;21.20;20.00;;;;;;;-141.02;100.00;41701.56;5112528;28;20235;-70
2023/12/09 09:32:51;;;;;;;21.60;20.37;;;;;;;-141.02;100.00;41720.75;5112948;28;20189;-72
2023/12/09 09:35:18;;;;;;;20.10;18.90;;;;;;;-141.02;100.00;41818.63;5112278;28;20193;-70
2023/12/09 09:37:45;;;;;;;22.60;21.20;;;;;;;-141.02;100.00;41607.53;5112589;28;20636;-75
2023/12/09 09:40:12;;;;;;;22.77;21.47;;;;;;;-141.02;100.00;41636.31;5112549;28;20215;-72
2023/12/09 09:42:44;;;;;;;21.10;20.00;;;;;;;-141.02;100.00;41835.91;5112799;28;20193;-71
2023/12/09 09:45:22;;;;;;;19.97;18.97;;;;;;;-141.02;100.00;41993.28;5112866;28;20195;-73
2023/12/09 09:47:51;;;;;;;20.80;19.77;;;;;;;-141.02;100.00;41964.47;5112521;28;20643;-72
2023/12/09 09:50:21;;;;;;;20.60;19.40;;;;;;;-141.02;100.00;41791.75;5112372;28;20307;-73
2023/12/09 09:52:49;;;;;;;17.83;16.83;;;;;;;-141.02;100.00;41772.56;5112675;28;20196;-73
2023/12/09 09:55:18;;;;;;;17.63;16.63;;;;;;;-141.02;100.00;41814.78;5112287;28;20236;-73
2023/12/09 09:57:46;;;;;;;17.83;16.73;;;;;;;-141.02;100.00;41753.38;5112316;28;20737;-75
2023/12/09 10:00:16;;;;;;;20.47;19.17;;;;;;;-141.02;100.00;41776.41;5112317;28;20558;-74
2023/12/09 10:02:44;;;;;;;21.87;20.67;;;;;;;-141.02;100.00;41845.50;5112758;28;20201;-74
2023/12/09 10:05:15;;;;;;;20.23;19.23;;;;;;;-141.02;100.00;42033.56;5112603;28;20251;-74
2023/12/09 10:07:43;;;;;;;20.37;19.27;;;;;;;-141.02;100.00;41887.72;5112688;28;20192;-73
2023/12/09 10:10:11;;;;;;;20.23;19.13;;;;;;;-141.02;100.00;41929.94;5112193;28;20193;-73
2023/12/09 10:12:39;;;;;;;25.23;23.93;;;;;;;-141.02;100.00;41833.97;5112554;28;20193;-73
2023/12/09 10:15:07;;;;;;;18.83;17.93;;;;;;;-141.02;100.00;41837.81;5112230;28;20640;-73
2023/12/09 10:17:34;;;;;;;16.80;16.00;;;;;;;-141.02;100.00;41845.50;5112503;28;20201;-74
2023/12/09 10:20:05;;;;;;;16.40;15.60;;;;;;;-141.02;100.00;41885.78;5112147;28;20679;-74
2023/12/09 10:22:34;;;;;;;16.20;15.50;;;;;;;-141.02;100.00;41851.25;5112517;28;20220;-73
2023/12/09 10:25:00;;;;;;;15.33;14.73;;;;;;;-141.02;100.00;41956.81;5112076;28;20237;-73
2023/12/09 10:27:27;;;;;;;15.80;15.10;;;;;;;-141.02;100.00;41914.59;5112094;28;20193;-73
2023/12/09 10:29:56;;;;;;;15.80;15.10;;;;;;;-141.02;100.00;41972.16;5112065;28;20730;-73
2023/12/09 10:32:23;;;;;;;18.47;17.57;;;;;;;-141.02;100.00;41845.50;5112503;28;20237;-74
2023/12/09 10:34:51;;;;;;;18.40;17.60;;;;;;;-141.02;100.00;42014.38;5112029;28;20194;-74
2023/12/09 10:37:19;;;;;;;17.40;16.60;;;;;;;-141.02;100.00;42002.88;5112222;28;20296;-74
2023/12/09 10:39:49;;;;;;;17.17;16.37;;;;;;;-141.02;100.00;41945.28;5111940;28;20634;-74
2023/12/09 10:42:16;;;;;;;17.20;16.40;;;;;;;-141.02;100.00;42052.78;5111883;28;20557;-74
2023/12/09 10:44:43;;;;;;;18.27;17.47;;;;;;;-141.02;100.00;41918.41;5111870;28;20548;-74
2023/12/09 10:47:10;;;;;;;18.07;17.27;;;;;;;-141.02;100.00;41711.16;5113276;28;20679;-74
2023/12/09 10:49:37;;;;;;;17.73;16.93;;;;;;;-141.02;100.00;41691.97;5115952;28;20192;-74
2023/12/09 10:52:05;;;;;;;17.47;16.67;;;;;;;-141.02;100.00;41730.34;5115644;28;20233;-74
2023/12/09 10:54:32;;;;;;;16.67;15.97;;;;;;;-141.02;100.00;41830.13;5115482;28;20232;-74
2023/12/09 10:57:01;;;;;;;17.20;16.50;;;;;;;-141.02;100.00;41818.63;5115896;28;20196;-74